Duluth, Minnesota
Current Conditions -  °F | °C
As of 7:55 PM on Saturday 22 Nov 2014 (Local Time) from KDLH Reporting Station
Haze Haze  
Wind Chill: -4°   Ceiling: 400
Heat Index:   Visibility: 3mi
Dew Point: -1°   Wind: 9mph
Humidity: 92%   Direction: 150°SSE
Pressure: 29.58"   Gusts: NA
Location:  46.79°N, 92.09°W
Report Text: KDLH 230155Z 15008KT 3SM BR OVC004 01/M01 A2958 RMK AO2 SLP036 T00061006
Loading
Personal Weather Stations






























Interactive Weather Map New forecast layout! Learn more

10-Day Weather Forecast

Advertisements
Track Severe Weather on mobile